createdAt,value
2023-02-28T00:01:40.788Z,-23667.56
2023-02-28T00:08:15.649Z,-23669.02
2023-02-28T00:10:45.810Z,-23668.83
2023-02-28T00:13:19.805Z,-23668.92
2023-02-28T00:15:48.038Z,-23669.05
2023-02-28T00:18:16.112Z,-23669.39
2023-02-28T00:20:47.314Z,-23669.55
2023-02-28T00:23:15.565Z,-23668.86
2023-02-28T00:25:43.662Z,-23667.91
2023-02-28T00:28:12.076Z,-23667.47
2023-02-28T00:30:40.204Z,-23667.31
2023-02-28T00:33:08.691Z,-23666.84
2023-02-28T00:35:36.912Z,-23667.37
2023-02-28T00:38:05.146Z,-23667.84
2023-02-28T00:40:33.362Z,-23668.22
2023-02-28T00:43:02.511Z,-23668.07
2023-02-28T00:45:31.354Z,-23667.53
2023-02-28T00:47:59.530Z,-23666.68
2023-02-28T00:50:27.912Z,-23666.36
2023-02-28T00:52:57.024Z,-23665.60
2023-02-28T00:55:25.559Z,-23664.75
2023-02-28T00:57:53.716Z,-23664.43
2023-02-28T01:00:22.028Z,-23663.77
2023-02-28T01:02:52.138Z,-23662.82
2023-02-28T01:05:20.738Z,-23661.90
2023-02-28T01:07:49.364Z,-23661.84
2023-02-28T01:10:17.695Z,-23662.03
2023-02-28T01:12:46.417Z,-23661.87
2023-02-28T01:15:17.645Z,-23662.13
2023-02-28T01:17:50.212Z,-23662.54
2023-02-28T01:20:18.888Z,-23663.14
2023-02-28T01:22:47.668Z,-23662.88
2023-02-28T01:25:17.189Z,-23662.38
2023-02-28T01:27:46.566Z,-23662.06
2023-02-28T01:30:16.488Z,-23661.97
2023-02-28T01:32:45.593Z,-23661.62
2023-02-28T01:35:13.759Z,-23661.08
2023-02-28T01:37:42.971Z,-23661.18
2023-02-28T01:40:11.915Z,-23661.71
2023-02-28T01:42:40.273Z,-23661.97
2023-02-28T01:45:27.677Z,-23661.84
2023-02-28T01:47:58.920Z,-23661.46
2023-02-28T01:50:29.093Z,-23660.96
2023-02-28T01:52:58.302Z,-23661.11
2023-02-28T01:55:29.830Z,-23660.92
2023-02-28T01:58:03.209Z,-23661.05
2023-02-28T02:00:31.919Z,-23661.53
2023-02-28T02:03:02.459Z,-23662.32
2023-02-28T02:05:35.520Z,-23662.03
2023-02-28T02:08:07.164Z,-23662.03
2023-02-28T02:10:37.593Z,-23662.35
2023-02-28T02:13:23.307Z,-23662.57
2023-02-28T02:16:20.801Z,-23662.29
2023-02-28T02:18:59.030Z,-23662.44
2023-02-28T02:21:39.267Z,-23662.66
2023-02-28T02:24:29.009Z,-23663.01
2023-02-28T02:27:21.008Z,-23663.96
2023-02-28T02:30:18.578Z,-23663.80
2023-02-28T02:33:05.842Z,-23662.41
2023-02-28T02:35:36.612Z,-23660.10
2023-02-28T02:38:30.516Z,-23658.58
2023-02-28T02:41:04.712Z,-23657.64
2023-02-28T02:43:39.234Z,-23657.51
2023-02-28T02:46:13.687Z,-23657.39
2023-02-28T02:48:41.923Z,-23657.42
2023-02-28T02:51:18.903Z,-23657.00
2023-02-28T02:53:50.496Z,-23656.63
2023-02-28T02:56:20.230Z,-23656.85
2023-02-28T02:58:48.654Z,-23656.59
2023-02-28T03:01:28.999Z,-23656.12
2023-02-28T03:03:58.091Z,-23656.31
2023-02-28T03:06:27.057Z,-23656.53
2023-02-28T03:08:55.276Z,-23656.50
2023-02-28T03:11:24.439Z,-23656.75
2023-02-28T03:14:35.668Z,-23657.51
2023-02-28T03:17:03.749Z,-23657.42
2023-02-28T03:19:43.637Z,-23657.48
2023-02-28T03:22:35.203Z,-23657.73
2023-02-28T03:25:08.723Z,-23657.73
2023-02-28T03:27:59.539Z,-23657.04
2023-02-28T03:30:47.139Z,-23656.97
2023-02-28T03:33:25.538Z,-23657.29
2023-02-28T03:36:02.752Z,-23656.72
2023-02-28T03:38:33.199Z,-23656.02
2023-02-28T03:41:18.829Z,-23656.34
2023-02-28T03:43:51.977Z,-23657.29
2023-02-28T03:46:22.298Z,-23658.33
2023-02-28T03:48:53.738Z,-23658.90
2023-02-28T03:51:22.519Z,-23659.12
2023-02-28T03:53:55.703Z,-23658.78
2023-02-28T03:56:27.357Z,-23657.64
2023-02-28T03:58:56.882Z,-23657.48
2023-02-28T04:01:36.770Z,-23657.48
2023-02-28T04:04:05.348Z,-23657.23
2023-02-28T04:06:35.393Z,-23657.07
2023-02-28T04:09:04.972Z,-23656.79
2023-02-28T04:11:53.492Z,-23656.21
2023-02-28T04:14:21.709Z,-23655.90
2023-02-28T04:16:49.882Z,-23655.11
2023-02-28T04:19:18.023Z,-23654.41
2023-02-28T04:21:47.999Z,-23654.00
2023-02-28T04:24:21.562Z,-23653.30
2023-02-28T04:26:54.255Z,-23652.80
2023-02-28T04:29:26.260Z,-23652.67
2023-02-28T04:31:55.091Z,-23651.82
2023-02-28T04:34:24.619Z,-23650.90
2023-02-28T04:37:10.378Z,-23649.95
2023-02-28T04:39:41.333Z,-23649.10
2023-02-28T04:42:09.874Z,-23649.16
2023-02-28T04:44:37.959Z,-23649.51
2023-02-28T04:47:06.386Z,-23650.52
2023-02-28T04:49:34.749Z,-23650.81
2023-02-28T04:52:03.130Z,-23650.46
2023-02-28T04:54:31.902Z,-23649.26
2023-02-28T04:57:00.103Z,-23648.94
2023-02-28T04:59:34.916Z,-23648.40
2023-02-28T05:02:08.129Z,-23647.29
2023-02-28T05:04:37.063Z,-23646.60
2023-02-28T05:07:05.742Z,-23646.13
2023-02-28T05:09:36.971Z,-23646.13
2023-02-28T05:12:07.790Z,-23645.43
2023-02-28T05:14:38.202Z,-23644.38
2023-02-28T05:17:06.477Z,-23644.29
2023-02-28T05:19:34.633Z,-23645.21
2023-02-28T05:22:03.713Z,-23645.96
2023-02-28T05:24:41.108Z,-23645.90
2023-02-28T05:27:09.894Z,-23646.00
2023-02-28T05:29:42.739Z,-23645.87
2023-02-28T05:32:12.339Z,-23646.73
2023-02-28T05:34:40.809Z,-23647.68
2023-02-28T05:37:15.479Z,-23648.09
2023-02-28T05:39:43.901Z,-23647.49
2023-02-28T05:42:14.589Z,-23647.30
2023-02-28T05:44:43.207Z,-23647.42
2023-02-28T05:47:11.916Z,-23647.52
2023-02-28T05:49:40.390Z,-23647.52
2023-02-28T05:52:08.722Z,-23647.83
2023-02-28T05:54:37.979Z,-23648.69
2023-02-28T05:57:15.487Z,-23649.38
2023-02-28T05:59:50.956Z,-23650.21
2023-02-28T06:02:19.295Z,-23650.46
2023-02-28T06:04:48.366Z,-23649.13
2023-02-28T06:07:18.578Z,-23648.24
2023-02-28T06:09:47.558Z,-23647.68
2023-02-28T06:12:16.528Z,-23647.42
2023-02-28T06:14:45.150Z,-23647.71
2023-02-28T06:17:17.956Z,-23647.52
2023-02-28T06:19:46.224Z,-23647.01
2023-02-28T06:22:14.759Z,-23646.92
2023-02-28T06:24:43.038Z,-23647.52
2023-02-28T06:27:11.431Z,-23648.28
2023-02-28T06:29:42.677Z,-23648.82
2023-02-28T06:32:11.055Z,-23649.45
2023-02-28T06:34:40.450Z,-23650.21
2023-02-28T06:37:08.672Z,-23650.74
2023-02-28T06:39:40.329Z,-23651.12
2023-02-28T06:42:09.083Z,-23651.09
2023-02-28T06:44:37.277Z,-23650.36
2023-02-28T06:47:06.304Z,-23649.92
2023-02-28T06:49:38.501Z,-23649.67
2023-02-28T06:52:08.137Z,-23650.30
2023-02-28T06:54:37.683Z,-23650.96
2023-02-28T06:57:05.966Z,-23650.87
2023-02-28T06:59:34.271Z,-23651.03
2023-02-28T07:02:04.157Z,-23652.10
2023-02-28T07:04:32.837Z,-23653.81
2023-02-28T07:07:01.321Z,-23655.01
2023-02-28T07:09:30.799Z,-23655.01
2023-02-28T07:11:58.956Z,-23654.35
2023-02-28T07:14:27.285Z,-23654.03
2023-02-28T07:16:55.749Z,-23654.06
2023-02-28T07:19:24.003Z,-23653.56
2023-02-28T07:21:52.168Z,-23653.62
2023-02-28T07:24:20.350Z,-23654.41
2023-02-28T07:26:48.787Z,-23655.52
2023-02-28T07:29:17.288Z,-23656.21
2023-02-28T07:31:48.335Z,-23656.37
2023-02-28T07:34:16.784Z,-23657.16
2023-02-28T07:36:44.912Z,-23657.54
2023-02-28T07:39:13.232Z,-23658.17
2023-02-28T07:41:44.685Z,-23659.31
2023-02-28T07:44:13.166Z,-23659.21
2023-02-28T07:46:41.543Z,-23658.49
2023-02-28T07:49:10.895Z,-23657.86
2023-02-28T07:51:39.714Z,-23657.61
2023-02-28T07:54:08.858Z,-23656.56
2023-02-28T07:56:38.255Z,-23656.24
2023-02-28T07:59:10.387Z,-23656.18
2023-02-28T08:01:43.400Z,-23655.52
2023-02-28T08:04:12.256Z,-23656.88
2023-02-28T08:06:40.852Z,-23657.45
2023-02-28T08:09:17.021Z,-23657.26
2023-02-28T08:11:47.614Z,-23656.72
2023-02-28T08:14:16.933Z,-23656.21
2023-02-28T08:16:47.553Z,-23656.05
2023-02-28T08:19:16.018Z,-23656.28
2023-02-28T08:21:44.391Z,-23656.66
2023-02-28T08:24:12.586Z,-23657.51
2023-02-28T08:26:40.934Z,-23658.71
2023-02-28T08:29:09.170Z,-23659.95
2023-02-28T08:31:37.717Z,-23661.18
2023-02-28T08:34:07.695Z,-23662.41
2023-02-28T08:36:36.183Z,-23663.49
2023-02-28T08:39:04.594Z,-23663.58
2023-02-28T08:41:34.390Z,-23665.13
2023-02-28T08:44:02.816Z,-23666.58
2023-02-28T08:46:31.276Z,-23668.16
2023-02-28T08:49:03.016Z,-23670.47
2023-02-28T08:51:31.866Z,-23672.68
2023-02-28T08:54:01.075Z,-23673.66
2023-02-28T08:56:34.425Z,-23675.84
2023-02-28T08:59:02.655Z,-23678.53
2023-02-28T09:01:31.362Z,-23679.82
2023-02-28T09:04:00.732Z,-23681.34
2023-02-28T09:06:29.941Z,-23681.56
2023-02-28T09:09:02.786Z,-23680.52
2023-02-28T09:11:31.196Z,-23680.90
2023-02-28T09:14:06.616Z,-23681.66
2023-02-28T09:16:36.250Z,-23682.45
2023-02-28T09:19:04.715Z,-23683.77
2023-02-28T09:21:35.095Z,-23683.84
2023-02-28T09:24:03.638Z,-23685.00
2023-02-28T09:26:38.847Z,-23687.66
2023-02-28T09:29:17.911Z,-23691.42
2023-02-28T09:31:46.420Z,-23693.66
2023-02-28T09:34:15.005Z,-23694.10
2023-02-28T09:36:45.570Z,-23694.77
2023-02-28T09:39:16.755Z,-23696.03
2023-02-28T09:41:51.544Z,-23697.92
2023-02-28T09:44:26.166Z,-23699.79
2023-02-28T09:47:26.950Z,-23700.64
2023-02-28T09:49:55.877Z,-23700.64
2023-02-28T09:52:29.680Z,-23698.43
2023-02-28T09:55:21.308Z,-23697.01
2023-02-28T09:57:50.311Z,-23695.59
2023-02-28T10:00:40.455Z,-23694.86
2023-02-28T10:03:24.256Z,-23695.68
2023-02-28T10:06:11.249Z,-23697.51
2023-02-28T10:08:59.498Z,-23698.11
2023-02-28T10:11:32.719Z,-23696.79
2023-02-28T10:14:15.553Z,-23697.51
2023-02-28T10:17:00.742Z,-23700.32
2023-02-28T10:19:41.351Z,-23700.89
2023-02-28T10:22:16.528Z,-23702.72
2023-02-28T10:24:45.513Z,-23703.36
2023-02-28T10:27:23.241Z,-23701.74
2023-02-28T10:29:57.215Z,-23700.13
2023-02-28T10:32:31.682Z,-23699.60
2023-02-28T10:35:10.423Z,-23700.64
2023-02-28T10:37:39.913Z,-23701.05
2023-02-28T10:40:18.912Z,-23699.44
2023-02-28T10:43:20.930Z,-23698.34
2023-02-28T10:45:55.552Z,-23698.87
2023-02-28T10:48:28.110Z,-23700.20
2023-02-28T10:50:59.067Z,-23701.74
2023-02-28T10:53:52.681Z,-23703.64
2023-02-28T10:56:27.202Z,-23705.79
2023-02-28T10:58:58.738Z,-23707.46
2023-02-28T11:01:33.663Z,-23708.16
2023-02-28T11:04:02.767Z,-23707.71
2023-02-28T11:06:35.684Z,-23708.03
2023-02-28T11:09:05.621Z,-23709.16
2023-02-28T11:11:44.510Z,-23711.31
2023-02-28T11:14:29.220Z,-23713.14
2023-02-28T11:17:00.614Z,-23714.81
2023-02-28T11:19:31.670Z,-23715.54
2023-02-28T11:22:03.947Z,-23713.90
2023-02-28T11:24:35.376Z,-23712.51
2023-02-28T11:27:04.197Z,-23710.96
2023-02-28T11:29:33.757Z,-23711.47
2023-02-28T11:32:04.656Z,-23713.20
2023-02-28T11:34:33.449Z,-23713.71
2023-02-28T11:37:02.359Z,-23713.04
2023-02-28T11:39:31.391Z,-23712.57
2023-02-28T11:42:17.820Z,-23712.86
2023-02-28T11:45:04.705Z,-23711.88
2023-02-28T11:47:44.508Z,-23711.03
2023-02-28T11:50:42.525Z,-23710.08
2023-02-28T11:53:34.924Z,-23709.42
2023-02-28T11:56:13.765Z,-23709.86
2023-02-28T11:58:48.029Z,-23711.94
2023-02-28T12:01:37.608Z,-23714.65
2023-02-28T12:04:12.874Z,-23717.84
2023-02-28T12:06:52.918Z,-23719.39
2023-02-28T12:09:42.545Z,-23720.15
2023-02-28T12:12:41.575Z,-23721.09
2023-02-28T12:15:25.992Z,-23722.71
2023-02-28T12:18:01.667Z,-23724.25
2023-02-28T12:20:39.569Z,-23725.73
2023-02-28T12:23:32.493Z,-23726.93
2023-02-28T12:26:06.583Z,-23728.00
2023-02-28T12:28:38.142Z,-23728.89
2023-02-28T12:31:10.932Z,-23729.77
2023-02-28T12:33:49.533Z,-23731.10
2023-02-28T12:36:20.465Z,-23732.77
2023-02-28T12:38:57.577Z,-23734.09
2023-02-28T12:41:25.686Z,-23734.69
2023-02-28T12:44:01.704Z,-23736.49
2023-02-28T12:46:32.143Z,-23738.51
2023-02-28T12:49:02.475Z,-23739.14
2023-02-28T12:51:31.664Z,-23739.74
2023-02-28T12:54:15.576Z,-23740.75
2023-02-28T12:57:04.989Z,-23742.13
2023-02-28T12:59:40.697Z,-23742.23
2023-02-28T13:02:17.537Z,-23742.04
2023-02-28T13:04:57.656Z,-23741.91
2023-02-28T13:07:50.743Z,-23742.16
2023-02-28T13:10:19.918Z,-23743.33
2023-02-28T13:12:52.783Z,-23743.49
2023-02-28T13:15:25.242Z,-23743.49
2023-02-28T13:17:54.961Z,-23743.33
2023-02-28T13:20:25.958Z,-23743.18
2023-02-28T13:22:58.289Z,-23743.77
2023-02-28T13:25:26.639Z,-23743.96
2023-02-28T13:28:01.940Z,-23743.71
2023-02-28T13:30:52.991Z,-23744.21
2023-02-28T13:33:31.277Z,-23745.07
2023-02-28T13:36:27.101Z,-23745.60
2023-02-28T13:38:59.094Z,-23745.16
2023-02-28T13:41:30.752Z,-23744.57
2023-02-28T13:44:12.789Z,-23744.44
2023-02-28T13:46:48.592Z,-23743.93
2023-02-28T13:49:30.179Z,-23743.27
2023-02-28T13:52:07.400Z,-23743.24
2023-02-28T13:54:57.506Z,-23743.33
2023-02-28T13:57:29.120Z,-23743.39
2023-02-28T14:00:32.808Z,-23743.74
2023-02-28T14:03:10.586Z,-23745.00
2023-02-28T14:05:39.914Z,-23746.27
2023-02-28T14:08:22.746Z,-23747.18
2023-02-28T14:11:04.160Z,-23748.09
2023-02-28T14:13:48.484Z,-23748.47
2023-02-28T14:16:21.380Z,-23748.75
2023-02-28T14:18:55.994Z,-23749.10
2023-02-28T14:21:29.910Z,-23749.17
2023-02-28T14:24:16.989Z,-23749.67
2023-02-28T14:26:57.404Z,-23750.33
2023-02-28T14:29:44.029Z,-23750.90
2023-02-28T14:32:31.236Z,-23751.47
2023-02-28T14:35:27.527Z,-23752.76
2023-02-28T14:37:56.220Z,-23754.37
2023-02-28T14:40:34.387Z,-23756.04
2023-02-28T14:43:04.506Z,-23757.04
2023-02-28T14:45:35.679Z,-23757.39
2023-02-28T14:48:04.281Z,-23757.71
2023-02-28T14:50:37.084Z,-23756.95
2023-02-28T14:53:05.785Z,-23755.88
2023-02-28T14:55:36.452Z,-23754.90
2023-02-28T14:58:07.872Z,-23753.74
2023-02-28T15:00:48.192Z,-23752.19
2023-02-28T15:03:24.749Z,-23750.74
2023-02-28T15:05:55.208Z,-23748.97
2023-02-28T15:08:23.653Z,-23748.06
2023-02-28T15:10:52.931Z,-23747.71
2023-02-28T15:13:46.438Z,-23747.05
2023-02-28T15:16:18.585Z,-23746.74
2023-02-28T15:18:52.052Z,-23746.33
2023-02-28T15:21:23.643Z,-23745.32
2023-02-28T15:24:03.321Z,-23744.72
2023-02-28T15:26:34.150Z,-23743.87
2023-02-28T15:29:29.459Z,-23742.48
2023-02-28T15:32:05.851Z,-23740.78
2023-02-28T15:34:44.271Z,-23738.85
2023-02-28T15:37:34.451Z,-23737.18
2023-02-28T15:40:29.884Z,-23735.45
2023-02-28T15:43:07.213Z,-23733.68
2023-02-28T15:45:50.871Z,-23732.29
2023-02-28T15:48:32.512Z,-23730.68
2023-02-28T15:51:07.025Z,-23729.20
2023-02-28T15:53:58.193Z,-23727.88
2023-02-28T15:56:34.325Z,-23726.55
2023-02-28T15:59:05.106Z,-23725.32
2023-02-28T16:01:34.988Z,-23724.69
2023-02-28T16:04:12.678Z,-23724.00
2023-02-28T16:06:43.430Z,-23723.43
2023-02-28T16:09:17.322Z,-23722.83
2023-02-28T16:11:50.728Z,-23722.26
2023-02-28T16:14:21.164Z,-23721.92
2023-02-28T16:16:51.001Z,-23721.44
2023-02-28T16:19:19.926Z,-23721.03
2023-02-28T16:21:52.426Z,-23720.59
2023-02-28T16:24:20.767Z,-23720.05
2023-02-28T16:26:49.698Z,-23719.52
2023-02-28T16:29:30.081Z,-23719.01
2023-02-28T16:31:58.552Z,-23718.19
2023-02-28T16:34:27.496Z,-23717.43
2023-02-28T16:36:56.802Z,-23716.74
2023-02-28T16:39:25.092Z,-23715.92
2023-02-28T16:41:53.461Z,-23715.16
2023-02-28T16:44:31.631Z,-23714.59
2023-02-28T16:47:01.332Z,-23713.90
2023-02-28T16:49:29.654Z,-23713.20
2023-02-28T16:51:57.900Z,-23712.98
2023-02-28T16:54:26.462Z,-23712.41
2023-02-28T16:56:54.904Z,-23712.13
2023-02-28T16:59:25.220Z,-23711.82
2023-02-28T17:01:58.928Z,-23711.21
2023-02-28T17:04:27.759Z,-23710.21
2023-02-28T17:06:57.567Z,-23709.57
2023-02-28T17:09:36.719Z,-23708.85
2023-02-28T17:12:10.472Z,-23708.09
2023-02-28T17:14:41.629Z,-23707.65
2023-02-28T17:17:16.105Z,-23706.64
2023-02-28T17:19:47.446Z,-23706.07
2023-02-28T17:22:16.432Z,-23705.38
2023-02-28T17:24:47.170Z,-23704.49
2023-02-28T17:27:17.179Z,-23703.48
2023-02-28T17:29:45.765Z,-23702.59
2023-02-28T17:32:18.709Z,-23702.00
2023-02-28T17:34:47.502Z,-23701.33
2023-02-28T17:37:17.448Z,-23700.70
2023-02-28T17:39:45.730Z,-23699.98
2023-02-28T17:42:17.149Z,-23699.09
2023-02-28T17:44:45.379Z,-23697.77
2023-02-28T17:47:13.968Z,-23696.63
2023-02-28T17:49:42.851Z,-23696.03
2023-02-28T17:52:11.818Z,-23695.46
2023-02-28T17:54:40.889Z,-23694.96
2023-02-28T17:57:14.103Z,-23694.26
2023-02-28T17:59:43.231Z,-23693.22
2023-02-28T18:02:13.719Z,-23692.65
2023-02-28T18:04:47.774Z,-23691.99
2023-02-28T18:07:16.811Z,-23691.19
2023-02-28T18:09:45.009Z,-23690.44
2023-02-28T18:12:13.524Z,-23689.78
2023-02-28T18:14:43.572Z,-23689.24
2023-02-28T18:17:13.362Z,-23688.86
2023-02-28T18:19:44.365Z,-23688.61
2023-02-28T18:22:12.454Z,-23688.23
2023-02-28T18:24:41.179Z,-23687.66
2023-02-28T18:27:11.225Z,-23687.03
2023-02-28T18:29:40.882Z,-23686.24
2023-02-28T18:32:10.365Z,-23685.67
2023-02-28T18:34:38.755Z,-23685.04
2023-02-28T18:37:07.376Z,-23684.41
2023-02-28T18:39:35.540Z,-23683.68
2023-02-28T18:42:04.615Z,-23682.86
2023-02-28T18:44:33.228Z,-23682.41
2023-02-28T18:47:02.667Z,-23681.88
2023-02-28T18:49:35.772Z,-23681.31
2023-02-28T18:52:04.397Z,-23680.80
2023-02-28T18:54:33.736Z,-23680.36
2023-02-28T18:57:02.028Z,-23679.63
2023-02-28T18:59:31.673Z,-23678.85
2023-02-28T19:01:59.887Z,-23678.59
2023-02-28T19:04:28.308Z,-23678.40
2023-02-28T19:07:04.549Z,-23677.89
2023-02-28T19:09:33.684Z,-23677.48
2023-02-28T19:12:02.022Z,-23676.98
2023-02-28T19:14:35.772Z,-23676.79
2023-02-28T19:17:04.104Z,-23676.44
2023-02-28T19:19:32.446Z,-23676.35
2023-02-28T19:22:00.975Z,-23675.65
2023-02-28T19:24:30.006Z,-23675.37
2023-02-28T19:27:00.218Z,-23675.21
2023-02-28T19:29:28.714Z,-23675.09
2023-02-28T19:31:59.096Z,-23675.05
2023-02-28T19:34:27.496Z,-23675.31
2023-02-28T19:36:56.236Z,-23675.15
2023-02-28T19:39:24.466Z,-23674.99
2023-02-28T19:41:52.670Z,-23674.96
2023-02-28T19:44:20.840Z,-23674.83
2023-02-28T19:46:49.144Z,-23674.64
2023-02-28T19:49:18.705Z,-23674.36
2023-02-28T19:51:47.414Z,-23674.14
2023-02-28T19:54:16.304Z,-23674.01
2023-02-28T19:56:44.853Z,-23673.85
2023-02-28T19:59:21.514Z,-23673.66
2023-02-28T20:01:56.911Z,-23673.29
2023-02-28T20:04:25.930Z,-23673.00
2023-02-28T20:06:54.249Z,-23672.81
2023-02-28T20:09:22.561Z,-23672.62
2023-02-28T20:11:51.203Z,-23672.46
2023-02-28T20:14:19.496Z,-23672.05
2023-02-28T20:16:51.922Z,-23671.71
2023-02-28T20:19:20.558Z,-23671.38
2023-02-28T20:21:49.536Z,-23671.20
2023-02-28T20:24:18.321Z,-23670.66
2023-02-28T20:26:47.634Z,-23670.50
2023-02-28T20:29:22.622Z,-23669.84
2023-02-28T20:31:51.120Z,-23669.21
2023-02-28T20:34:20.140Z,-23668.32
2023-02-28T20:36:48.590Z,-23667.53
2023-02-28T20:39:17.242Z,-23667.34
2023-02-28T20:41:45.965Z,-23667.31
2023-02-28T20:44:16.282Z,-23667.12
2023-02-28T20:46:46.340Z,-23667.03
2023-02-28T20:49:16.029Z,-23666.96
2023-02-28T20:51:45.523Z,-23666.96
2023-02-28T20:54:14.199Z,-23666.96
2023-02-28T20:56:42.374Z,-23667.31
2023-02-28T20:59:11.832Z,-23667.69
2023-02-28T21:01:42.890Z,-23668.22
2023-02-28T21:04:11.184Z,-23668.48
2023-02-28T21:06:40.687Z,-23668.54
2023-02-28T21:09:11.491Z,-23668.60
2023-02-28T21:11:39.988Z,-23668.38
2023-02-28T21:14:11.452Z,-23668.29
2023-02-28T21:16:40.749Z,-23668.25
2023-02-28T21:19:09.897Z,-23668.16
2023-02-28T21:21:40.785Z,-23668.10
2023-02-28T21:24:13.729Z,-23667.91
2023-02-28T21:26:42.483Z,-23668.19
2023-02-28T21:29:13.305Z,-23668.73
2023-02-28T21:31:41.976Z,-23669.33
2023-02-28T21:34:11.294Z,-23669.65
2023-02-28T21:36:41.781Z,-23670.09
2023-02-28T21:39:14.978Z,-23670.22
2023-02-28T21:41:43.701Z,-23670.16
2023-02-28T21:44:18.792Z,-23670.16
2023-02-28T21:46:48.598Z,-23670.22
2023-02-28T21:49:17.735Z,-23670.75
2023-02-28T21:51:49.391Z,-23671.32
2023-02-28T21:54:18.953Z,-23671.61
2023-02-28T21:56:47.636Z,-23671.80
2023-02-28T21:59:16.022Z,-23672.05
2023-02-28T22:01:44.925Z,-23672.27
2023-02-28T22:04:22.142Z,-23672.87
2023-02-28T22:06:54.520Z,-23673.29
2023-02-28T22:09:23.177Z,-23673.88
2023-02-28T22:11:52.837Z,-23674.45
2023-02-28T22:14:22.260Z,-23674.67
2023-02-28T22:16:55.134Z,-23674.93
2023-02-28T22:19:24.898Z,-23675.37
2023-02-28T22:21:54.191Z,-23675.65
2023-02-28T22:24:24.710Z,-23676.06
2023-02-28T22:26:53.501Z,-23675.94
2023-02-28T22:29:21.870Z,-23675.65
2023-02-28T22:31:50.823Z,-23675.65
2023-02-28T22:34:20.481Z,-23675.75
2023-02-28T22:36:49.954Z,-23675.68
2023-02-28T22:39:18.286Z,-23675.94
2023-02-28T22:41:46.482Z,-23676.00
2023-02-28T22:44:23.138Z,-23675.97
2023-02-28T22:46:54.370Z,-23675.88
2023-02-28T22:49:22.764Z,-23675.40
2023-02-28T22:51:51.297Z,-23674.99
2023-02-28T22:54:19.929Z,-23674.83
2023-02-28T22:56:49.944Z,-23674.32
2023-02-28T22:59:18.838Z,-23673.98
2023-02-28T23:01:47.889Z,-23673.47
2023-02-28T23:04:16.281Z,-23673.03
2023-02-28T23:06:44.897Z,-23672.87
2023-02-28T23:09:21.736Z,-23672.49
2023-02-28T23:11:51.370Z,-23671.89
2023-02-28T23:14:20.151Z,-23671.61
2023-02-28T23:16:56.940Z,-23671.26
2023-02-28T23:19:29.907Z,-23670.47
2023-02-28T23:21:59.601Z,-23670.31
2023-02-28T23:24:29.832Z,-23670.69
2023-02-28T23:26:59.064Z,-23670.79
2023-02-28T23:29:29.345Z,-23670.72
2023-02-28T23:31:58.468Z,-23670.79
2023-02-28T23:34:30.627Z,-23670.79
2023-02-28T23:37:02.064Z,-23670.88
2023-02-28T23:39:31.488Z,-23670.79
2023-02-28T23:41:59.816Z,-23670.66
2023-02-28T23:44:28.189Z,-23670.50
2023-02-28T23:46:56.351Z,-23670.38
2023-02-28T23:49:24.717Z,-23669.84
2023-02-28T23:51:54.544Z,-23669.87
2023-02-28T23:54:25.206Z,-23669.58
2023-02-28T23:56:54.230Z,-23668.83
2023-02-28T23:59:22.821Z,-23668.45
